Time;durP1;ratioP1;P1;durP2;ratioP2;P2;SDS_P1;SDS_P2;PMS_P1;PMS_P2;Temp;Humidity;BMP_temperature;BMP_pressure;BME280_temperature;BME280_humidity;BME280_pressure;Samples;Min_cycle;Max_cycle;Signal;HPM_P1;HPM_P2
2022/04/20 00:00:36;;;;;;;8.10;1.83;;;;;;;4.60;68.56;101883.56;5039357;28;20087;-85
2022/04/20 00:03:02;;;;;;;2.08;1.48;;;;;;;4.61;67.84;101879.81;5045296;28;20495;-86
2022/04/20 00:05:33;;;;;;;5.68;2.63;;;;;;;4.64;68.34;101890.25;5027819;28;20570;-86
2022/04/20 00:08:00;;;;;;;3.22;1.80;;;;;;;4.64;67.96;101887.53;5021464;28;20034;-86
2022/04/20 00:10:26;;;;;;;2.58;1.42;;;;;;;4.64;68.38;101882.94;5035245;28;20037;-86
2022/04/20 00:12:51;;;;;;;3.53;1.70;;;;;;;4.63;68.21;101896.75;5034898;28;20128;-87
2022/04/20 00:15:17;;;;;;;2.53;1.52;;;;;;;4.64;68.80;101893.81;5047013;28;20096;-88
2022/04/20 00:17:42;;;;;;;2.95;1.52;;;;;;;4.67;68.18;101900.69;5037080;28;20052;-89
2022/04/20 00:20:08;;;;;;;3.45;2.13;;;;;;;4.63;68.65;101894.84;5021603;28;20045;-89
2022/04/20 00:22:34;;;;;;;3.00;1.48;;;;;;;4.63;68.67;101896.75;5030224;28;20044;-89
2022/04/20 00:25:00;;;;;;;5.47;2.00;;;;;;;4.63;68.83;101900.28;5035465;28;20045;-88
2022/04/20 00:27:26;;;;;;;3.17;1.60;;;;;;;4.65;69.00;101894.66;5036269;28;20053;-86
2022/04/20 00:29:52;;;;;;;4.78;1.95;;;;;;;4.64;68.62;101890.25;5030389;28;20028;-87
2022/04/20 00:32:17;;;;;;;3.63;1.80;;;;;;;4.67;68.80;101897.97;5048217;28;20037;-86
2022/04/20 00:34:43;;;;;;;5.25;1.85;;;;;;;4.68;68.68;101892.34;5032568;28;20045;-87
2022/04/20 00:37:08;;;;;;;4.32;1.55;;;;;;;4.70;68.21;101898.41;5026232;28;20109;-87
2022/04/20 00:39:53;;;;;;;6.03;1.35;;;;;;;4.69;68.49;101899.47;5024121;28;20044;-87
2022/04/20 00:42:22;;;;;;;2.33;1.98;;;;;;;4.68;68.92;101903.22;5051557;28;20034;-86
2022/04/20 00:44:51;;;;;;;1.75;1.20;;;;;;;4.69;68.82;101899.47;5024962;28;20045;-87
2022/04/20 00:47:17;;;;;;;6.20;1.63;;;;;;;4.72;68.82;101898.22;5031810;28;20057;-87
2022/04/20 00:50:03;;;;;;;4.95;1.77;;;;;;;4.74;68.60;101901.53;5031196;28;20090;-89
2022/04/20 00:52:47;;;;;;;4.15;1.80;;;;;;;4.74;68.75;101904.25;5029718;28;20048;-88
2022/04/20 00:55:32;;;;;;;4.18;1.17;;;;;;;4.74;68.58;101898.81;5015766;28;20080;-87
2022/04/20 00:58:00;;;;;;;6.80;1.70;;;;;;;4.73;69.06;101908.03;5049787;28;20045;-88
2022/04/20 01:00:27;;;;;;;2.05;1.25;;;;;;;4.73;68.25;101905.31;5051082;28;20500;-88
2022/04/20 01:02:56;;;;;;;1.85;1.35;;;;;;;4.74;68.59;101904.25;5028991;28;20125;-91
2022/04/20 01:05:41;;;;;;;5.47;1.65;;;;;;;4.75;68.48;101908.66;5029729;28;20476;-89
2022/04/20 01:08:34;;;;;;;2.33;1.35;;;;;;;4.79;68.81;101908.00;5049403;28;20105;-87
2022/04/20 01:11:39;;;;;;;3.17;1.67;;;;;;;4.80;68.67;101906.97;5014563;28;20404;-88
2022/04/20 01:14:25;;;;;;;5.57;3.20;;;;;;;4.79;68.56;101905.28;5007741;28;20144;-87
2022/04/20 01:17:09;;;;;;;5.30;2.38;;;;;;;4.76;68.29;101913.88;5032797;28;20793;-89
2022/04/20 01:19:51;;;;;;;5.13;1.60;;;;;;;4.72;68.07;101911.81;5036095;28;20045;-89
2022/04/20 01:22:42;;;;;;;4.65;1.60;;;;;;;4.72;67.46;101909.09;5029669;28;20041;-88
2022/04/20 01:25:26;;;;;;;2.08;1.17;;;;;;;4.74;67.10;101915.13;5038817;28;20088;-87
2022/04/20 01:28:02;;;;;;;4.43;1.60;;;;;;;4.70;66.94;101905.75;5041681;28;20049;-91
2022/04/20 01:30:58;;;;;;;2.13;1.25;;;;;;;4.65;67.15;101905.53;5024979;28;20040;-91
2022/04/20 01:33:47;;;;;;;1.80;1.40;;;;;;;4.61;67.34;101909.72;5029800;28;20099;-93
2022/04/20 01:36:13;;;;;;;3.13;1.30;;;;;;;4.54;67.26;101902.41;5066487;28;20041;-92
2022/04/20 01:38:39;;;;;;;1.33;1.08;;;;;;;4.50;67.25;101900.28;5036372;28;20136;-89
2022/04/20 01:41:05;;;;;;;3.95;1.70;;;;;;;4.45;67.37;101911.81;5061552;28;20101;-88
2022/04/20 01:43:50;;;;;;;2.83;1.40;;;;;;;4.35;67.93;101908.69;5030583;28;20045;-88
2022/04/20 01:46:39;;;;;;;1.83;1.30;;;;;;;4.26;67.67;101917.25;5027536;28;20103;-89
2022/04/20 01:49:52;;;;;;;5.15;1.75;;;;;;;4.17;68.04;101914.75;5000323;28;20071;-89
2022/04/20 01:53:06;;;;;;;2.83;1.48;;;;;;;4.06;68.15;101918.06;5032081;28;20080;-89
2022/04/20 01:56:25;;;;;;;2.35;1.35;;;;;;;3.96;68.30;101914.06;5011815;28;20107;-89
2022/04/20 01:59:26;;;;;;;3.78;1.63;;;;;;;3.89;68.68;101917.63;5032183;28;20095;-88
2022/04/20 02:04:46;;;;;;;2.70;0.90;;;;;;;3.72;69.38;101920.91;5049126;28;20510;-89
2022/04/20 02:07:30;;;;;;;1.08;0.95;;;;;;;3.64;69.15;101921.91;5020319;28;20049;-87
2022/04/20 02:10:15;;;;;;;2.55;1.50;;;;;;;3.60;69.13;101926.91;5027179;28;20076;-91
2022/04/20 02:13:00;;;;;;;1.85;1.63;;;;;;;3.56;69.83;101922.94;5032585;28;20095;-89
2022/04/20 02:15:54;;;;;;;2.10;1.52;;;;;;;3.53;69.87;101927.94;5033630;28;20412;-89
2022/04/20 02:18:56;;;;;;;2.33;1.25;;;;;;;3.46;69.88;101938.75;5021343;28;20634;-90
2022/04/20 02:21:47;;;;;;;1.92;1.00;;;;;;;3.44;70.47;101929.16;5036591;28;20095;-87
2022/04/20 02:24:14;;;;;;;1.40;1.02;;;;;;;3.44;70.24;101934.56;5060803;28;20485;-87
2022/04/20 02:27:00;;;;;;;2.38;1.30;;;;;;;3.38;71.11;101940.81;5035240;28;20526;-89
2022/04/20 02:29:47;;;;;;;1.33;1.20;;;;;;;3.31;70.86;101936.22;5021074;28;20056;-89
2022/04/20 02:32:33;;;;;;;2.03;1.40;;;;;;;3.27;70.78;101943.06;5050590;28;20087;-88
2022/04/20 02:35:17;;;;;;;2.83;1.33;;;;;;;3.27;70.88;101943.06;5025112;28;20088;-88
2022/04/20 02:37:43;;;;;;;5.10;1.48;;;;;;;3.26;71.46;101940.53;5036698;28;20042;-89
2022/04/20 02:40:09;;;;;;;2.92;1.20;;;;;;;3.23;71.09;101940.97;5047963;28;20128;-89
2022/04/20 02:42:35;;;;;;;2.70;1.30;;;;;;;3.20;71.17;101939.50;5012997;28;20133;-89
2022/04/20 02:45:19;;;;;;;2.85;1.30;;;;;;;3.17;71.41;101950.75;5034504;28;20056;-89
2022/04/20 02:48:04;;;;;;;8.18;1.80;;;;;;;3.15;71.63;101947.41;5053598;28;20052;-89
2022/04/20 02:50:48;;;;;;;2.58;1.85;;;;;;;3.16;71.58;101950.94;5036938;28;20096;-88
2022/04/20 02:53:33;;;;;;;2.97;1.40;;;;;;;3.30;71.40;101953.53;5045013;28;20416;-89
2022/04/20 02:56:19;;;;;;;2.15;1.50;;;;;;;3.41;70.82;101948.56;5016664;28;20100;-91
2022/04/20 02:59:02;;;;;;;6.57;1.67;;;;;;;3.37;70.66;101940.00;5030807;28;20137;-92
2022/04/20 03:01:30;;;;;;;2.70;1.50;;;;;;;3.32;70.82;101948.75;5034941;28;20459;-92
2022/04/20 03:04:01;;;;;;;6.25;1.48;;;;;;;3.32;70.86;101958.75;5034561;28;20092;-91
2022/04/20 03:06:48;;;;;;;2.88;1.60;;;;;;;3.36;70.93;101948.34;5020927;28;20119;-91
2022/04/20 03:09:46;;;;;;;3.97;1.60;;;;;;;3.67;70.71;101945.97;5019350;28;20088;-90
2022/04/20 03:12:31;;;;;;;3.55;1.48;;;;;;;3.99;69.99;101959.81;5041476;28;20049;-89
2022/04/20 03:15:15;;;;;;;7.55;1.40;;;;;;;4.26;69.01;101949.84;5051788;28;20710;-87
2022/04/20 03:17:43;;;;;;;2.03;1.50;;;;;;;4.51;67.77;101953.63;5017319;28;20083;-88
2022/04/20 03:20:10;;;;;;;8.02;1.95;;;;;;;4.68;67.03;101949.44;5016543;28;20033;-88
2022/04/20 03:22:37;;;;;;;4.15;1.70;;;;;;;4.83;66.14;101941.06;5033908;28;20037;-87
2022/04/20 03:25:23;;;;;;;3.67;1.85;;;;;;;5.00;65.62;101946.88;5045428;28;20052;-89
2022/04/20 03:28:17;;;;;;;7.25;1.95;;;;;;;5.13;64.85;101953.13;5057968;28;20099;-89
2022/04/20 03:31:04;;;;;;;6.22;1.80;;;;;;;5.31;64.85;101943.47;5047382;28;20087;-87
2022/04/20 03:33:48;;;;;;;4.13;1.60;;;;;;;5.45;63.88;101951.38;5022464;28;20087;-84
2022/04/20 03:36:34;;;;;;;4.35;1.70;;;;;;;5.53;63.65;101957.63;5032977;28;20056;-88
2022/04/20 03:39:00;;;;;;;2.38;1.20;;;;;;;5.68;63.76;101961.75;5029795;28;20037;-86
2022/04/20 03:41:26;;;;;;;4.78;1.80;;;;;;;5.81;62.43;101958.13;5033942;28;20045;-88
2022/04/20 03:44:10;;;;;;;3.83;1.30;;;;;;;5.85;62.17;101953.06;5029296;28;20053;-88
2022/04/20 03:46:55;;;;;;;3.70;1.60;;;;;;;5.99;61.45;101965.59;5033614;28;20541;-89
2022/04/20 03:49:41;;;;;;;3.83;1.88;;;;;;;5.99;61.70;101962.88;5034277;28;20424;-87
2022/04/20 03:52:25;;;;;;;1.58;1.38;;;;;;;5.99;61.88;101962.88;5052075;28;20048;-88
2022/04/20 03:54:51;;;;;;;3.75;1.42;;;;;;;6.05;60.75;101968.28;5028408;28;20037;-91
2022/04/20 03:57:17;;;;;;;3.67;1.50;;;;;;;6.19;60.98;101979.94;5028851;28;20091;-88
2022/04/20 03:59:44;;;;;;;4.25;1.30;;;;;;;6.43;60.62;101969.31;5022975;28;20041;-87
2022/04/20 04:02:31;;;;;;;1.98;1.50;;;;;;;6.67;59.78;101971.22;5031379;28;20543;-88
2022/04/20 04:05:29;;;;;;;3.57;1.37;;;;;;;6.91;59.13;101972.25;5026582;28;20547;-90
2022/04/20 04:08:26;;;;;;;2.50;1.33;;;;;;;7.14;57.68;101977.91;5014794;28;20129;-87
2022/04/20 04:10:53;;;;;;;2.45;1.38;;;;;;;7.41;57.00;101977.63;5040045;28;20056;-84
2022/04/20 04:13:19;;;;;;;3.83;1.70;;;;;;;7.63;56.77;101975.25;5023971;28;20038;-85
2022/04/20 04:15:51;;;;;;;3.83;1.85;;;;;;;8.06;55.37;101965.00;5035088;28;20037;-87
2022/04/20 04:18:35;;;;;;;4.10;1.70;;;;;;;8.52;54.99;101970.91;5047282;28;20044;-84
2022/04/20 04:21:24;;;;;;;2.83;1.70;;;;;;;8.99;52.95;101966.28;5046470;28;20535;-84
2022/04/20 04:24:34;;;;;;;3.17;1.60;;;;;;;9.14;52.22;101969.38;5022627;28;20096;-85
2022/04/20 04:27:15;;;;;;;3.83;1.60;;;;;;;9.22;51.87;101971.78;5035554;28;20098;-84
2022/04/20 04:29:41;;;;;;;3.55;1.20;;;;;;;9.41;50.81;101977.09;5023294;28;20037;-85
2022/04/20 04:32:07;;;;;;;4.15;1.67;;;;;;;9.68;51.05;101964.50;5013254;28;20033;-86
2022/04/20 04:34:34;;;;;;;1.48;1.38;;;;;;;9.86;49.93;101977.22;5043901;28;20045;-85
2022/04/20 04:37:23;;;;;;;1.48;1.20;;;;;;;9.99;49.84;101971.44;5040956;28;20172;-83
2022/04/20 04:40:14;;;;;;;4.55;1.67;;;;;;;10.50;48.50;101977.91;5017201;28;20108;-85
2022/04/20 04:42:59;;;;;;;4.25;1.38;;;;;;;11.00;47.47;101975.16;5041766;28;20057;-83
2022/04/20 04:49:00;;;;;;;3.45;1.48;;;;;;;11.35;45.78;101996.00;5053653;28;20098;-83
2022/04/20 04:51:26;;;;;;;6.75;1.67;;;;;;;11.39;46.29;102000.72;5038363;28;20496;-85
2022/04/20 04:53:52;;;;;;;8.13;1.73;;;;;;;11.61;45.29;101999.91;5019473;28;20052;-85
2022/04/20 04:56:47;;;;;;;4.35;2.08;;;;;;;11.82;44.75;101998.31;5036759;28;20079;-84
2022/04/20 04:59:31;;;;;;;5.75;1.88;;;;;;;11.96;44.45;102000.38;5039659;28;20459;-84
2022/04/20 05:02:16;;;;;;;5.75;2.00;;;;;;;12.56;43.39;102002.16;5021403;28;20546;-84
2022/04/20 05:05:00;;;;;;;6.13;2.10;;;;;;;12.83;42.50;102001.25;5059140;28;20099;-84
2022/04/20 05:07:44;;;;;;;4.93;1.88;;;;;;;13.29;42.04;101996.94;5058577;28;20057;-85
2022/04/20 05:10:14;;;;;;;5.47;2.28;;;;;;;13.63;41.32;101991.06;5030378;28;20037;-85
2022/04/20 05:12:40;;;;;;;2.90;1.67;;;;;;;13.35;40.31;102011.59;5046771;28;20392;-86
2022/04/20 05:15:24;;;;;;;7.30;1.90;;;;;;;13.43;40.02;101998.16;5028794;28;20080;-87
2022/04/20 05:18:08;;;;;;;6.93;1.63;;;;;;;13.44;39.83;102002.56;5043935;28;20091;-85
2022/04/20 05:20:52;;;;;;;7.93;1.60;;;;;;;13.48;39.82;102006.44;5044037;28;20095;-85
2022/04/20 05:23:38;;;;;;;4.55;1.70;;;;;;;13.74;39.80;102003.81;5030470;28;20056;-86
2022/04/20 05:26:22;;;;;;;3.38;1.48;;;;;;;14.07;38.67;102008.09;5030369;28;20554;-86
2022/04/20 05:28:49;;;;;;;2.17;1.40;;;;;;;14.19;38.22;102011.41;5047222;28;20120;-85
2022/04/20 05:31:15;;;;;;;11.15;1.50;;;;;;;14.29;38.08;102010.63;5047140;28;20116;-86
2022/04/20 05:34:02;;;;;;;8.98;1.67;;;;;;;14.07;38.07;102002.56;5030287;28;20483;-85
2022/04/20 05:42:59;;;;;;;2.75;1.40;;;;;;;14.49;37.85;102005.16;5050174;28;20044;-86
2022/04/20 05:45:25;;;;;;;7.65;2.15;;;;;;;14.71;36.50;101993.84;5010129;28;20037;-86
2022/04/20 05:48:05;;;;;;;4.65;2.05;;;;;;;14.36;37.13;102000.13;5012020;28;20042;-84
2022/04/20 05:50:49;;;;;;;7.68;1.63;;;;;;;14.05;37.63;101997.28;5024015;28;20076;-84
2022/04/20 05:53:36;;;;;;;4.65;1.40;;;;;;;14.39;37.62;102005.94;5010597;28;20096;-84
2022/04/20 05:56:22;;;;;;;4.05;1.20;;;;;;;14.30;36.91;102004.84;5028720;28;20589;-83
2022/04/20 05:59:07;;;;;;;4.95;1.40;;;;;;;14.29;37.30;102005.09;5030917;28;20435;-82
2022/04/20 06:01:36;;;;;;;5.35;1.60;;;;;;;14.54;37.18;102005.16;5049106;28;20040;-81
2022/04/20 06:04:12;;;;;;;3.25;1.40;;;;;;;14.84;36.24;102001.59;5034599;28;20041;-82
2022/04/20 06:07:01;;;;;;;2.08;1.10;;;;;;;15.27;35.27;102005.72;5046932;28;20084;-81
2022/04/20 06:09:50;;;;;;;3.15;1.45;;;;;;;15.52;34.42;102001.22;5030153;28;20522;-82
2022/04/20 06:12:54;;;;;;;6.22;1.50;;;;;;;15.38;35.39;102017.56;5030652;28;20048;-83
2022/04/20 06:15:57;;;;;;;4.55;1.60;;;;;;;15.12;35.21;102005.75;5030635;28;20650;-83
2022/04/20 06:18:36;;;;;;;5.32;1.33;;;;;;;15.00;34.93;102007.97;5029420;28;20504;-83
2022/04/20 06:21:14;;;;;;;1.48;1.20;;;;;;;14.93;35.45;101999.97;5063076;28;20073;-86
2022/04/20 06:24:37;;;;;;;2.85;1.30;;;;;;;15.13;35.82;102009.34;5032084;28;20526;-85
2022/04/20 06:27:45;;;;;;;8.00;1.45;;;;;;;15.71;34.15;102010.59;5037833;28;20056;-85
2022/04/20 06:30:35;;;;;;;5.82;1.50;;;;;;;15.95;33.83;102014.38;5050008;28;20462;-84
2022/04/20 06:33:38;;;;;;;4.45;1.55;;;;;;;16.59;33.48;102013.44;5029362;28;20100;-86
2022/04/20 06:36:30;;;;;;;2.58;1.20;;;;;;;16.06;33.54;102039.25;5028346;28;20146;-85
2022/04/20 06:39:30;;;;;;;6.50;1.50;;;;;;;15.84;34.12;102021.06;5022461;28;20037;-86
2022/04/20 06:42:19;;;;;;;2.72;1.08;;;;;;;16.05;33.21;102029.28;5027654;28;20053;-86
2022/04/20 06:45:04;;;;;;;3.20;1.23;;;;;;;15.95;33.75;102019.91;5031021;28;20056;-85
2022/04/20 06:47:43;;;;;;;2.15;1.00;;;;;;;16.33;33.10;102020.28;5029966;28;20037;-84
2022/04/20 06:50:46;;;;;;;7.47;1.50;;;;;;;16.48;32.98;102024.88;5026722;28;20048;-84
2022/04/20 06:59:55;;;;;;;6.63;0.95;;;;;;;17.09;31.06;102030.81;5049637;28;20161;-88
2022/04/20 07:03:03;;;;;;;1.45;1.00;;;;;;;16.59;32.27;102021.75;5025611;28;20068;-84
2022/04/20 07:05:48;;;;;;;3.42;1.35;;;;;;;16.63;32.11;102032.25;5018882;28;20041;-85
2022/04/20 07:08:22;;;;;;;2.83;1.38;;;;;;;16.82;32.52;102030.50;5034175;28;20038;-85
2022/04/20 07:11:07;;;;;;;2.90;1.10;;;;;;;17.50;31.29;102016.53;5018744;28;20091;-88
2022/04/20 07:13:52;;;;;;;2.95;0.90;;;;;;;17.82;30.92;102020.66;5033009;28;20048;-85
2022/04/20 07:16:36;;;;;;;2.65;0.98;;;;;;;17.81;31.11;102024.53;5049757;28;20060;-85
2022/04/20 07:19:29;;;;;;;5.13;1.20;;;;;;;18.49;30.13;102015.84;5050898;28;20423;-85
2022/04/20 07:22:33;;;;;;;2.65;1.00;;;;;;;18.44;29.82;102015.94;5027465;28;20049;-84
2022/04/20 07:25:29;;;;;;;5.70;1.33;;;;;;;18.68;29.56;102023.06;5012788;28;20049;-85
2022/04/20 07:28:34;;;;;;;2.17;0.70;;;;;;;18.36;29.70;102014.63;5025419;28;20053;-84
2022/04/20 07:31:20;;;;;;;1.00;0.73;;;;;;;18.58;29.48;102019.63;5050388;28;20491;-85
2022/04/20 07:34:04;;;;;;;2.75;1.02;;;;;;;18.15;29.71;102025.22;5041507;28;20045;-86
2022/04/20 07:36:47;;;;;;;4.10;1.13;;;;;;;17.92;30.09;102026.09;5051771;28;20041;-85
2022/04/20 07:39:39;;;;;;;1.88;1.10;;;;;;;18.00;29.66;102028.19;5049981;28;20499;-85
2022/04/20 07:42:46;;;;;;;1.35;0.90;;;;;;;17.54;30.04;102031.50;5032567;28;20061;-86
2022/04/20 07:45:38;;;;;;;3.08;1.20;;;;;;;17.13;30.73;102037.44;5057998;28;20048;-87
2022/04/20 07:48:42;;;;;;;4.68;1.20;;;;;;;17.47;31.02;102031.81;5051741;28;20522;-87
2022/04/20 07:51:45;;;;;;;3.92;1.10;;;;;;;17.60;30.90;102035.03;5053183;28;20183;-86
2022/04/20 07:54:31;;;;;;;3.30;1.35;;;;;;;17.85;30.01;102036.72;5015156;28;20416;-86
2022/04/20 07:57:18;;;;;;;3.00;1.17;;;;;;;17.80;29.96;102028.44;5015938;28;20471;-85
2022/04/20 08:00:18;;;;;;;4.82;1.30;;;;;;;17.61;30.29;102034.75;5046497;28;20043;-84
2022/04/20 08:03:23;;;;;;;1.27;0.80;;;;;;;17.22;30.46;102022.94;5051234;28;20127;-86
2022/04/20 08:06:07;;;;;;;3.80;0.80;;;;;;;17.08;30.57;102026.41;5055294;28;20156;-86
2022/04/20 08:08:35;;;;;;;4.13;1.10;;;;;;;17.02;31.35;102016.47;5055925;28;20688;-85
2022/04/20 08:11:01;;;;;;;3.45;1.23;;;;;;;16.84;31.26;102028.28;5043980;28;20046;-84
2022/04/20 08:16:53;;;;;;;3.72;0.80;;;;;;;16.72;31.91;102002.88;5048229;28;20044;-85
2022/04/20 08:19:46;;;;;;;3.28;1.33;;;;;;;17.19;31.29;102010.50;5034316;28;20470;-85
2022/04/20 08:22:45;;;;;;;2.67;0.73;;;;;;;16.95;31.13;102007.66;5024899;28;20419;-84
2022/04/20 08:25:12;;;;;;;5.63;1.10;;;;;;;16.55;31.13;102019.84;5032726;28;20496;-86
2022/04/20 08:27:39;;;;;;;5.63;0.93;;;;;;;16.47;31.46;102054.53;5033264;28;20057;-85
2022/04/20 08:30:23;;;;;;;3.80;1.27;;;;;;;16.07;31.78;102035.38;5033574;28;20048;-86
2022/04/20 08:33:08;;;;;;;1.73;0.73;;;;;;;16.09;31.79;102019.28;5014869;28;20053;-85
2022/04/20 08:35:52;;;;;;;2.50;1.00;;;;;;;16.35;31.68;102034.69;5009139;28;20088;-85
2022/04/20 08:38:38;;;;;;;2.55;1.42;;;;;;;16.66;31.28;102040.84;5033855;28;20052;-86
2022/04/20 08:41:22;;;;;;;1.70;1.20;;;;;;;16.54;31.61;102034.84;5038012;28;20466;-85
2022/04/20 08:44:08;;;;;;;4.93;1.30;;;;;;;16.36;32.07;102016.09;5050580;28;20151;-86
2022/04/20 08:46:54;;;;;;;4.55;0.93;;;;;;;16.23;32.01;102026.69;5050871;28;20052;-86
2022/04/20 08:49:21;;;;;;;6.35;0.95;;;;;;;16.05;32.02;102027.34;5048313;28;20114;-86
2022/04/20 08:54:56;;;;;;;3.58;0.93;;;;;;;16.77;30.91;102016.69;5051261;28;20087;-87
2022/04/20 08:57:42;;;;;;;7.43;1.10;;;;;;;16.63;31.16;102021.19;5044286;28;20137;-87
2022/04/20 09:00:29;;;;;;;2.13;0.75;;;;;;;16.25;31.38;102018.09;5031500;28;20119;-86
2022/04/20 09:03:15;;;;;;;1.27;0.75;;;;;;;16.18;31.08;102020.38;5023899;28;20249;-86
2022/04/20 09:06:00;;;;;;;3.53;1.00;;;;;;;16.17;30.86;102027.84;5028862;28;20582;-82
2022/04/20 09:08:45;;;;;;;6.65;1.05;;;;;;;15.87;31.17;102034.34;5034119;28;20071;-83
2022/04/20 09:11:11;;;;;;;3.45;0.82;;;;;;;15.69;31.77;102040.50;5051347;28;20036;-82
2022/04/20 09:13:41;;;;;;;3.28;0.82;;;;;;;15.59;31.78;102032.22;5040991;28;20143;-82
2022/04/20 09:16:12;;;;;;;2.47;1.15;;;;;;;15.61;31.77;102032.75;5030164;28;20244;-81
2022/04/20 09:18:40;;;;;;;2.67;0.73;;;;;;;15.74;31.35;102021.09;5035382;28;20491;-80
2022/04/20 09:21:24;;;;;;;1.27;0.82;;;;;;;15.29;32.11;102036.69;5037224;28;20499;-80
2022/04/20 09:24:10;;;;;;;2.60;0.70;;;;;;;14.46;33.42;102038.88;5038351;28;20051;-78
2022/04/20 09:26:56;;;;;;;5.53;0.75;;;;;;;13.37;34.58;102017.69;5048445;28;20067;-79
2022/04/20 09:29:41;;;;;;;3.10;0.60;;;;;;;12.81;34.68;102058.53;5048498;28;20167;-80
2022/04/20 09:32:39;;;;;;;8.35;0.80;;;;;;;12.18;36.18;102046.34;5050260;28;20186;-82
2022/04/20 09:35:08;;;;;;;2.63;0.70;;;;;;;11.94;36.77;102037.50;5045573;28;20507;-81
2022/04/20 09:37:34;;;;;;;0.52;0.50;;;;;;;11.83;37.55;102030.22;5033896;28;20073;-80
2022/04/20 09:40:40;;;;;;;1.45;0.57;;;;;;;11.95;36.78;102033.66;5030334;28;20103;-82
2022/04/20 09:43:25;;;;;;;5.18;0.80;;;;;;;12.04;36.51;102023.88;5026818;28;20084;-82
2022/04/20 09:49:14;;;;;;;5.93;1.00;;;;;;;11.99;36.81;102032.91;5029844;28;20044;-81
2022/04/20 09:52:11;;;;;;;0.93;0.70;;;;;;;12.05;37.18;102025.53;5011904;28;20142;-82
2022/04/20 09:54:56;;;;;;;2.65;1.08;;;;;;;12.11;36.82;102040.19;5012974;28;20084;-78
2022/04/20 09:57:41;;;;;;;3.65;0.77;;;;;;;12.14;37.17;102053.41;5013443;28;20095;-78
2022/04/20 10:00:09;;;;;;;0.80;0.80;;;;;;;12.19;36.85;102040.56;5022019;28;20041;-78
2022/04/20 10:02:52;;;;;;;2.15;0.70;;;;;;;12.05;37.01;102023.63;5011762;28;20045;-77
2022/04/20 10:05:39;;;;;;;0.60;0.60;;;;;;;12.09;37.61;102012.94;5043085;28;20063;-78
2022/04/20 10:08:23;;;;;;;4.22;0.73;;;;;;;12.10;37.80;102028.34;5050707;28;20047;-79
2022/04/20 10:11:13;;;;;;;4.47;0.80;;;;;;;12.10;37.34;102022.00;5050816;28;20427;-79
2022/04/20 10:17:01;;;;;;;1.50;0.80;;;;;;;12.21;37.09;102018.31;5025110;28;20067;-78
2022/04/20 10:19:47;;;;;;;0.60;0.30;;;;;;;12.27;37.64;102026.34;5057898;28;20056;-78
2022/04/20 10:22:16;;;;;;;0.73;0.73;;;;;;;12.30;37.32;102028.56;5030404;28;20504;-78
2022/04/20 10:24:45;;;;;;;4.18;0.93;;;;;;;12.40;37.18;102029.78;5030569;28;20547;-78
2022/04/20 10:27:57;;;;;;;0.63;0.50;;;;;;;12.47;36.73;102027.66;5024111;28;20072;-78
2022/04/20 10:30:59;;;;;;;0.80;0.43;;;;;;;12.38;36.77;102022.63;5014977;28;20343;-78
2022/04/20 10:33:44;;;;;;;2.70;0.80;;;;;;;12.28;37.29;102041.75;5013715;28;20052;-78
2022/04/20 10:37:02;;;;;;;2.92;0.68;;;;;;;12.17;37.13;102031.75;5013536;28;20045;-78
2022/04/20 10:40:25;;;;;;;0.68;0.65;;;;;;;12.15;37.43;102020.19;5014822;28;20092;-78
2022/04/20 10:43:20;;;;;;;0.95;0.90;;;;;;;12.22;36.89;102042.81;5016917;28;20059;-78
2022/04/20 10:46:03;;;;;;;2.85;0.80;;;;;;;12.16;37.36;102021.00;5014797;28;20096;-78
2022/04/20 10:48:58;;;;;;;1.75;0.60;;;;;;;12.06;37.58;102019.78;5031495;28;20044;-79
2022/04/20 10:51:45;;;;;;;1.70;0.50;;;;;;;12.03;37.75;102017.56;5034175;28;20057;-79
2022/04/20 10:54:34;;;;;;;1.38;0.60;;;;;;;12.09;36.76;102029.44;5034091;28;20052;-79
2022/04/20 10:57:34;;;;;;;2.58;0.68;;;;;;;12.02;36.49;102015.06;5020470;28;20068;-79
2022/04/20 11:00:19;;;;;;;3.35;0.70;;;;;;;11.94;37.13;102016.31;5032269;28;20071;-80
2022/04/20 11:03:12;;;;;;;3.13;1.08;;;;;;;11.98;37.69;102019.41;5049933;28;20032;-80
2022/04/20 11:06:00;;;;;;;3.10;0.70;;;;;;;11.99;37.12;102012.81;5053499;28;20475;-79
2022/04/20 11:08:45;;;;;;;5.03;0.88;;;;;;;12.13;37.65;102027.81;5033860;28;20055;-78
2022/04/20 11:21:16;;;;;;;0.70;0.70;;;;;;;12.23;38.30;101992.19;5023308;28;20072;-79
2022/04/20 11:24:08;;;;;;;0.88;0.60;;;;;;;12.23;38.65;101996.84;5032964;28;20103;-79
2022/04/20 11:26:54;;;;;;;1.58;0.88;;;;;;;12.21;38.62;101996.28;5016843;28;20054;-78
2022/04/20 11:29:43;;;;;;;1.17;0.85;;;;;;;12.23;39.57;102000.44;5049976;28;20534;-78
2022/04/20 11:32:27;;;;;;;3.85;0.95;;;;;;;12.25;38.88;101986.41;5023076;28;20041;-81
2022/04/20 11:35:06;;;;;;;2.15;1.00;;;;;;;12.34;39.01;101993.13;5016577;28;20047;-80
2022/04/20 11:37:58;;;;;;;2.15;0.77;;;;;;;12.38;39.22;101984.09;5031818;28;20078;-80
2022/04/20 11:40:42;;;;;;;2.35;0.80;;;;;;;12.44;39.69;101973.09;5032796;28;20060;-81
2022/04/20 11:43:27;;;;;;;5.50;1.48;;;;;;;12.53;40.35;101975.13;5033222;28;20052;-79
2022/04/20 11:46:11;;;;;;;3.90;1.10;;;;;;;12.62;40.21;101986.50;5034038;28;20094;-80
2022/04/20 11:49:02;;;;;;;4.53;1.00;;;;;;;12.49;40.20;101978.66;5033320;28;20052;-79
2022/04/20 11:51:53;;;;;;;1.25;0.80;;;;;;;12.47;41.14;101964.31;5033372;28;20037;-80
2022/04/20 11:54:20;;;;;;;3.20;1.20;;;;;;;12.50;41.95;101980.34;5056581;28;20145;-80
2022/04/20 11:57:23;;;;;;;1.25;1.15;;;;;;;12.49;42.49;101970.41;5032744;28;20052;-79
2022/04/20 12:00:11;;;;;;;3.83;1.00;;;;;;;12.50;41.90;101970.16;5032255;28;20139;-78
2022/04/20 12:03:04;;;;;;;1.23;1.13;;;;;;;12.52;42.26;101967.97;5033206;28;20056;-78
2022/04/20 12:06:02;;;;;;;2.30;1.20;;;;;;;12.58;42.17;101966.09;5033489;28;20110;-79
2022/04/20 12:08:30;;;;;;;6.60;1.45;;;;;;;12.55;42.24;101942.66;5034985;28;20046;-79
2022/04/20 12:10:55;;;;;;;1.77;1.05;;;;;;;12.63;42.35;101944.09;5033951;28;20488;-79
2022/04/20 12:13:31;;;;;;;5.72;1.20;;;;;;;12.63;41.84;101944.09;5032918;28;20044;-80
2022/04/20 12:16:15;;;;;;;7.05;1.20;;;;;;;12.59;42.86;101981.50;5032715;28;20083;-80
2022/04/20 12:19:00;;;;;;;6.57;1.05;;;;;;;12.53;42.95;101944.84;5041187;28;20052;-79
2022/04/20 12:22:12;;;;;;;2.78;0.85;;;;;;;12.54;42.28;101934.66;5013543;28;20096;-79
2022/04/20 12:25:07;;;;;;;3.58;0.70;;;;;;;12.66;42.94;101938.88;5012917;28;20125;-78
2022/04/20 12:27:53;;;;;;;0.90;0.70;;;;;;;12.68;42.71;101933.13;5027733;28;20052;-80
2022/04/20 12:30:48;;;;;;;1.65;0.73;;;;;;;12.72;43.07;101942.53;5018494;28;20038;-76
2022/04/20 12:33:22;;;;;;;1.83;0.98;;;;;;;12.64;42.85;101934.72;5023441;28;20049;-79
2022/04/20 12:36:08;;;;;;;3.97;1.10;;;;;;;12.58;43.03;101941.31;5025030;28;20114;-78
2022/04/20 12:39:27;;;;;;;1.75;0.50;;;;;;;12.53;42.93;101922.00;5036277;28;20056;-79
2022/04/20 12:42:13;;;;;;;3.17;0.80;;;;;;;12.53;42.62;101924.75;5029738;28;20126;-80
2022/04/20 12:45:20;;;;;;;4.53;0.90;;;;;;;12.45;42.64;101938.97;5029951;28;20538;-81
2022/04/20 12:47:45;;;;;;;3.97;1.17;;;;;;;12.41;43.01;101932.34;5026550;28;20045;-80
2022/04/20 12:50:11;;;;;;;1.73;0.65;;;;;;;12.45;42.90;101936.22;5026194;28;20033;-80
2022/04/20 12:52:56;;;;;;;0.75;0.73;;;;;;;12.48;42.92;101927.44;5020068;28;20114;-79
2022/04/20 13:02:04;;;;;;;1.10;0.85;;;;;;;12.38;43.80;101926.28;5031589;28;20096;-79
2022/04/20 13:04:49;;;;;;;2.40;0.85;;;;;;;12.35;44.33;101924.03;5008025;28;20084;-78
2022/04/20 13:07:33;;;;;;;3.33;0.52;;;;;;;12.31;43.60;101935.81;5018784;28;20103;-77
2022/04/20 13:10:00;;;;;;;2.42;0.70;;;;;;;12.28;44.14;101920.66;5021424;28;20608;-77
2022/04/20 13:12:28;;;;;;;2.35;0.75;;;;;;;12.29;44.38;101922.31;5026163;28;20523;-78
2022/04/20 13:15:36;;;;;;;2.78;1.02;;;;;;;12.30;44.05;101918.47;5026889;28;20052;-77
2022/04/20 13:18:21;;;;;;;0.32;0.30;;;;;;;12.38;43.36;101926.28;5019027;28;20044;-77
2022/04/20 13:21:05;;;;;;;1.88;0.75;;;;;;;12.47;43.57;101929.34;5025090;28;20819;-77
2022/04/20 13:23:52;;;;;;;1.50;0.70;;;;;;;12.38;43.04;101919.94;5031282;28;20063;-77
2022/04/20 13:29:02;;;;;;;1.15;0.35;;;;;;;12.26;43.50;101920.09;5028993;28;20044;-77
2022/04/20 13:31:47;;;;;;;5.65;0.98;;;;;;;12.26;43.61;101925.59;5028378;28;20044;-77
2022/04/20 13:34:31;;;;;;;1.75;0.57;;;;;;;12.23;43.32;101933.56;5021710;28;20175;-77